createdAt,value
2018-08-10T00:00:59.068Z,23.10
2018-08-10T00:03:26.685Z,23.20
2018-08-10T00:05:54.506Z,23.20
2018-08-10T00:08:22.144Z,23.00
2018-08-10T00:10:49.900Z,22.80
2018-08-10T00:13:17.644Z,22.80
2018-08-10T00:15:45.362Z,22.90
2018-08-10T00:18:13.077Z,22.90
2018-08-10T00:20:40.666Z,22.80
2018-08-10T00:23:08.589Z,22.70
2018-08-10T00:25:36.124Z,22.70
2018-08-10T00:28:03.852Z,22.70
2018-08-10T00:30:31.518Z,22.70
2018-08-10T00:32:59.269Z,22.70
2018-08-10T00:35:27.125Z,22.70
2018-08-10T00:37:54.763Z,22.80
2018-08-10T00:40:23.211Z,22.80
2018-08-10T00:42:50.943Z,22.80
2018-08-10T00:45:19.216Z,22.60
2018-08-10T00:47:47.484Z,22.70
2018-08-10T00:50:16.098Z,22.70
2018-08-10T00:52:44.556Z,22.70
2018-08-10T00:55:13.571Z,22.60
2018-08-10T00:57:41.638Z,22.60
2018-08-10T01:00:11.375Z,22.60
2018-08-10T01:02:39.580Z,22.60
2018-08-10T01:05:08.701Z,22.60
2018-08-10T01:07:36.577Z,22.50
2018-08-10T01:10:07.507Z,22.60
2018-08-10T01:12:35.279Z,22.60
2018-08-10T01:15:03.644Z,22.60
2018-08-10T01:17:31.299Z,22.60
2018-08-10T01:19:58.966Z,22.60
2018-08-10T01:22:26.584Z,22.70
2018-08-10T01:24:54.333Z,22.70
2018-08-10T01:27:27.501Z,22.60
2018-08-10T01:29:55.169Z,22.70
2018-08-10T01:32:22.795Z,22.50
2018-08-10T01:34:50.626Z,22.40
2018-08-10T01:37:18.196Z,22.40
2018-08-10T01:39:45.799Z,22.30
2018-08-10T01:42:13.320Z,22.20
2018-08-10T01:44:40.937Z,22.10
2018-08-10T01:47:08.798Z,22.20
2018-08-10T01:49:36.440Z,21.90
2018-08-10T01:52:04.268Z,21.90
2018-08-10T01:54:31.888Z,21.80
2018-08-10T01:56:59.549Z,21.90
2018-08-10T01:59:27.173Z,21.80
2018-08-10T02:01:54.714Z,21.90
2018-08-10T02:04:22.340Z,21.80
2018-08-10T02:06:49.899Z,21.80
2018-08-10T02:09:17.560Z,21.80
2018-08-10T02:11:45.333Z,21.70
2018-08-10T02:14:12.963Z,21.60
2018-08-10T02:16:40.530Z,21.50
2018-08-10T02:19:08.289Z,21.30
2018-08-10T02:21:36.189Z,21.20
2018-08-10T02:24:03.949Z,20.80
2018-08-10T02:26:31.568Z,20.60
2018-08-10T02:28:59.185Z,20.50
2018-08-10T02:31:26.811Z,20.40
2018-08-10T02:33:54.478Z,20.40
2018-08-10T02:36:22.043Z,20.70
2018-08-10T02:38:49.713Z,20.80
2018-08-10T02:41:17.561Z,20.80
2018-08-10T02:43:45.231Z,20.90
2018-08-10T02:46:12.849Z,21.00
2018-08-10T02:48:40.531Z,21.10
2018-08-10T02:51:08.124Z,21.10
2018-08-10T02:53:35.665Z,21.10
2018-08-10T02:56:03.445Z,21.10
2018-08-10T02:58:31.183Z,21.20
2018-08-10T03:00:58.812Z,21.20
2018-08-10T03:03:26.660Z,21.10
2018-08-10T03:05:54.193Z,21.20
2018-08-10T03:08:21.953Z,21.20
2018-08-10T03:10:49.776Z,21.30
2018-08-10T03:13:17.545Z,21.40
2018-08-10T03:15:45.134Z,21.40
2018-08-10T03:18:12.797Z,21.40
2018-08-10T03:20:40.433Z,21.40
2018-08-10T03:23:08.005Z,21.40
2018-08-10T03:25:35.560Z,21.20
2018-08-10T03:28:03.237Z,21.10
2018-08-10T03:30:30.864Z,20.90
2018-08-10T03:32:58.491Z,21.00
2018-08-10T03:35:26.089Z,20.80
2018-08-10T03:37:53.627Z,21.00
2018-08-10T03:40:21.280Z,21.20
2018-08-10T03:42:48.796Z,21.20
2018-08-10T03:45:16.300Z,21.30
2018-08-10T03:47:43.924Z,21.30
2018-08-10T03:50:12.957Z,21.30
2018-08-10T03:52:41.007Z,21.40
2018-08-10T03:55:09.400Z,21.10
2018-08-10T03:57:37.380Z,21.20
2018-08-10T04:00:07.085Z,21.30
2018-08-10T04:02:34.859Z,21.40
2018-08-10T04:05:02.452Z,21.40
2018-08-10T04:07:30.151Z,21.40
2018-08-10T04:09:57.925Z,21.50
2018-08-10T04:12:25.528Z,21.50
2018-08-10T04:14:53.225Z,21.40
2018-08-10T04:17:23.371Z,21.20
2018-08-10T04:19:51.835Z,21.40
2018-08-10T04:22:19.608Z,21.40
2018-08-10T04:24:47.330Z,21.40
2018-08-10T04:27:14.920Z,21.20
2018-08-10T04:29:42.641Z,21.00
2018-08-10T04:32:10.233Z,21.00
2018-08-10T04:34:37.782Z,21.10
2018-08-10T04:37:06.196Z,21.10
2018-08-10T04:39:33.808Z,21.00
2018-08-10T04:42:01.485Z,21.20
2018-08-10T04:44:29.193Z,21.30
2018-08-10T04:46:56.836Z,21.30
2018-08-10T04:49:24.416Z,21.10
2018-08-10T04:51:52.059Z,21.00
2018-08-10T04:54:19.731Z,20.80
2018-08-10T04:56:47.497Z,20.60
2018-08-10T04:59:15.085Z,20.40
2018-08-10T05:01:42.705Z,20.20
2018-08-10T05:04:10.281Z,20.10
2018-08-10T05:06:37.933Z,19.70
2018-08-10T05:09:08.370Z,19.70
2018-08-10T05:11:35.963Z,19.60
2018-08-10T05:14:03.622Z,19.80
2018-08-10T05:16:31.192Z,19.80
2018-08-10T05:18:58.723Z,19.70
2018-08-10T05:21:26.249Z,19.70
2018-08-10T05:23:53.822Z,19.70
2018-08-10T05:26:21.356Z,19.40
2018-08-10T05:28:48.885Z,19.40
2018-08-10T05:31:16.508Z,19.40
2018-08-10T05:33:44.217Z,19.40
2018-08-10T05:36:11.821Z,19.40
2018-08-10T05:38:39.432Z,19.40
2018-08-10T05:41:07.036Z,19.50
2018-08-10T05:43:34.650Z,19.60
2018-08-10T05:46:02.176Z,19.80
2018-08-10T05:48:34.469Z,19.60
2018-08-10T05:51:02.076Z,19.60
2018-08-10T05:53:29.596Z,19.60
2018-08-10T05:55:57.440Z,19.50
2018-08-10T05:58:25.096Z,19.70
2018-08-10T06:00:52.629Z,19.60
2018-08-10T06:03:20.184Z,19.60
2018-08-10T06:05:47.728Z,19.70
2018-08-10T06:08:15.271Z,19.50
2018-08-10T06:10:42.801Z,19.30
2018-08-10T06:13:10.446Z,19.40
2018-08-10T06:15:37.951Z,19.60
2018-08-10T06:18:05.703Z,20.00
2018-08-10T06:20:33.369Z,20.00
2018-08-10T06:23:01.049Z,20.10
2018-08-10T06:25:28.491Z,19.90
2018-08-10T06:27:56.159Z,19.70
2018-08-10T06:30:23.671Z,19.70
2018-08-10T06:32:51.199Z,19.50
2018-08-10T06:35:18.765Z,19.60
2018-08-10T06:37:46.313Z,19.60
2018-08-10T06:40:13.895Z,19.70
2018-08-10T06:42:41.436Z,19.90
2018-08-10T06:45:09.093Z,20.30
2018-08-10T06:47:36.906Z,20.90
2018-08-10T06:50:04.683Z,21.00
2018-08-10T06:52:32.259Z,21.10
2018-08-10T06:54:59.807Z,21.20
2018-08-10T06:57:27.484Z,21.40
2018-08-10T06:59:55.268Z,21.60
2018-08-10T07:02:23.189Z,21.60
2018-08-10T07:04:50.727Z,21.30
2018-08-10T07:07:18.392Z,21.10
2018-08-10T07:09:46.105Z,20.90
2018-08-10T07:12:13.585Z,21.00
2018-08-10T07:14:41.148Z,21.20
2018-08-10T07:17:08.675Z,21.30
2018-08-10T07:19:36.218Z,21.50
2018-08-10T07:22:03.788Z,21.80
2018-08-10T07:24:31.384Z,21.80
2018-08-10T07:26:59.178Z,22.10
2018-08-10T07:29:26.709Z,22.30
2018-08-10T07:31:54.268Z,22.50
2018-08-10T07:34:21.814Z,22.60
2018-08-10T07:36:49.403Z,22.40
2018-08-10T07:39:16.994Z,22.60
2018-08-10T07:41:44.605Z,22.70
2018-08-10T07:44:12.163Z,23.00
2018-08-10T07:46:39.755Z,22.80
2018-08-10T07:49:07.333Z,22.60
2018-08-10T07:51:34.896Z,22.60
2018-08-10T07:54:02.543Z,22.60
2018-08-10T07:56:30.097Z,22.80
2018-08-10T07:58:57.705Z,22.90
2018-08-10T08:01:25.248Z,23.10
2018-08-10T08:03:52.968Z,23.40
2018-08-10T08:06:20.534Z,23.60
2018-08-10T08:08:48.092Z,23.70
2018-08-10T08:11:15.657Z,23.50
2018-08-10T08:13:43.322Z,23.40
2018-08-10T08:16:10.872Z,23.30
2018-08-10T08:18:38.444Z,23.20
2018-08-10T08:21:07.572Z,23.30
2018-08-10T08:23:35.445Z,23.50
2018-08-10T08:26:03.605Z,23.50
2018-08-10T08:28:31.599Z,23.60
2018-08-10T08:31:00.483Z,23.60
2018-08-10T08:33:28.265Z,23.70
2018-08-10T08:35:57.029Z,23.80
2018-08-10T08:38:36.448Z,24.20
2018-08-10T08:41:04.445Z,24.50
2018-08-10T08:46:09.161Z,24.90
2018-08-10T08:48:39.623Z,25.40
2018-08-10T08:51:10.547Z,26.50
2018-08-10T08:53:38.171Z,27.20
2018-08-10T08:56:10.287Z,28.10
2018-08-10T08:58:38.555Z,28.70
2018-08-10T09:01:07.181Z,29.20
2018-08-10T09:03:46.032Z,30.20
2018-08-10T09:06:13.637Z,31.20
2018-08-10T09:08:52.622Z,32.20
2018-08-10T09:11:21.818Z,33.20
2018-08-10T09:14:55.098Z,34.30
2018-08-10T09:17:26.105Z,34.80
2018-08-10T09:19:54.713Z,35.20
2018-08-10T09:22:22.294Z,36.10
2018-08-10T09:24:49.918Z,37.50
2018-08-10T09:27:17.607Z,38.50
2018-08-10T09:29:45.265Z,38.50
2018-08-10T09:32:12.881Z,37.60
2018-08-10T09:34:40.597Z,37.40
2018-08-10T09:37:08.956Z,38.00
2018-08-10T09:39:36.663Z,39.20
2018-08-10T09:42:04.767Z,40.40
2018-08-10T09:44:33.193Z,40.70
2018-08-10T09:47:01.453Z,41.20
2018-08-10T09:49:30.893Z,41.00
2018-08-10T09:51:58.625Z,40.40
2018-08-10T09:54:26.443Z,40.40
2018-08-10T09:56:57.981Z,41.00
2018-08-10T09:59:25.822Z,41.10
2018-08-10T10:01:59.066Z,41.40
2018-08-10T10:04:26.695Z,42.40
2018-08-10T10:06:54.350Z,43.20
2018-08-10T10:09:21.968Z,42.90
2018-08-10T10:11:49.593Z,42.90
2018-08-10T10:14:17.212Z,43.80
2018-08-10T10:16:44.973Z,44.10
2018-08-10T10:19:12.660Z,44.10
2018-08-10T10:21:40.286Z,44.00
2018-08-10T10:24:07.915Z,43.80
2018-08-10T10:26:35.485Z,43.60
2018-08-10T10:29:03.120Z,43.60
2018-08-10T10:31:30.689Z,43.90
2018-08-10T10:33:58.306Z,45.20
2018-08-10T10:36:25.850Z,45.70
2018-08-10T10:38:53.469Z,46.10
2018-08-10T10:41:21.121Z,45.80
2018-08-10T10:43:48.709Z,45.50
2018-08-10T10:46:16.350Z,44.80
2018-08-10T10:48:43.972Z,45.00
2018-08-10T10:51:11.568Z,44.20
2018-08-10T10:53:39.216Z,44.80
2018-08-10T10:56:08.590Z,45.20
2018-08-10T10:58:36.146Z,46.00
2018-08-10T11:01:03.809Z,46.30
2018-08-10T11:03:31.427Z,46.80
2018-08-10T11:05:59.044Z,47.10
2018-08-10T11:08:26.637Z,48.90
2018-08-10T11:10:54.291Z,50.00
2018-08-10T11:13:21.871Z,49.30
2018-08-10T11:15:49.528Z,48.60
2018-08-10T11:18:17.310Z,47.00
2018-08-10T11:20:44.904Z,46.30
2018-08-10T11:23:12.744Z,45.40
2018-08-10T11:25:40.599Z,44.30
2018-08-10T11:28:08.152Z,43.20
2018-08-10T11:30:35.953Z,42.70
2018-08-10T11:33:04.299Z,41.70
2018-08-10T11:35:32.288Z,41.70
2018-08-10T11:38:01.584Z,41.20
2018-08-10T11:40:29.281Z,40.40
2018-08-10T11:42:56.937Z,39.40
2018-08-10T11:45:24.504Z,38.30
2018-08-10T11:47:52.115Z,37.20
2018-08-10T11:50:19.776Z,36.10
2018-08-10T11:52:47.564Z,35.50
2018-08-10T11:55:15.324Z,34.80
2018-08-10T11:57:43.804Z,35.60
2018-08-10T12:00:12.897Z,36.10
2018-08-10T12:02:40.877Z,36.30
2018-08-10T12:05:09.864Z,37.20
2018-08-10T12:07:37.632Z,37.10
2018-08-10T12:10:05.968Z,37.70
2018-08-10T12:12:33.743Z,37.70
2018-08-10T12:15:01.355Z,37.00
2018-08-10T12:17:29.080Z,36.80
2018-08-10T12:19:56.770Z,37.90
2018-08-10T12:22:25.119Z,39.90
2018-08-10T12:24:52.801Z,42.20
2018-08-10T12:27:20.464Z,43.80
2018-08-10T12:29:48.131Z,44.60
2018-08-10T12:32:15.798Z,43.80
2018-08-10T12:34:43.612Z,44.00
2018-08-10T12:37:11.313Z,43.60
2018-08-10T12:39:38.970Z,41.80
2018-08-10T12:42:06.762Z,39.30
2018-08-10T12:44:34.599Z,38.40
2018-08-10T12:47:02.276Z,38.10
2018-08-10T12:49:29.894Z,36.60
2018-08-10T12:51:57.579Z,36.40
2018-08-10T12:54:25.131Z,37.70
2018-08-10T12:56:52.921Z,37.80
2018-08-10T12:59:20.772Z,36.30
2018-08-10T13:01:48.481Z,34.40
2018-08-10T13:04:16.164Z,32.90
2018-08-10T13:06:43.757Z,31.90
2018-08-10T13:09:12.685Z,30.90
2018-08-10T13:11:40.313Z,30.20
2018-08-10T13:14:08.316Z,29.80
2018-08-10T13:16:35.855Z,30.70
2018-08-10T13:19:04.037Z,30.60
2018-08-10T13:21:31.828Z,30.40
2018-08-10T13:23:59.970Z,30.80
2018-08-10T13:26:27.800Z,31.10
2018-08-10T13:28:55.525Z,31.70
2018-08-10T13:31:23.261Z,32.60
2018-08-10T13:33:51.028Z,34.00
2018-08-10T13:36:18.744Z,34.90
2018-08-10T13:38:46.329Z,35.50
2018-08-10T13:41:14.079Z,36.80
2018-08-10T13:43:42.139Z,38.30
2018-08-10T13:46:09.741Z,39.40
2018-08-10T13:48:37.476Z,39.30
2018-08-10T13:51:05.244Z,38.60
2018-08-10T13:53:32.980Z,38.80
2018-08-10T13:56:00.572Z,38.70
2018-08-10T13:58:28.455Z,39.30
2018-08-10T14:00:56.455Z,39.70
2018-08-10T14:03:24.573Z,38.90
2018-08-10T14:05:52.268Z,38.50
2018-08-10T14:08:19.951Z,38.00
2018-08-10T14:10:47.591Z,36.10
2018-08-10T14:13:15.262Z,33.80
2018-08-10T14:15:42.925Z,32.50
2018-08-10T14:18:10.707Z,31.50
2018-08-10T14:20:38.661Z,31.20
2018-08-10T14:23:06.443Z,30.50
2018-08-10T14:25:34.402Z,30.30
2018-08-10T14:28:02.453Z,30.10
2018-08-10T14:30:30.030Z,29.80
2018-08-10T14:32:57.634Z,29.60
2018-08-10T14:35:25.304Z,29.20
2018-08-10T14:37:52.927Z,28.50
2018-08-10T14:40:20.520Z,28.20
2018-08-10T14:42:48.071Z,28.10
2018-08-10T14:45:16.339Z,28.00
2018-08-10T14:47:44.126Z,28.00
2018-08-10T14:50:13.389Z,27.90
2018-08-10T14:52:41.440Z,27.90
2018-08-10T14:55:11.983Z,28.00
2018-08-10T14:57:40.153Z,28.00
2018-08-10T15:00:13.151Z,28.10
2018-08-10T15:02:41.107Z,28.20
2018-08-10T15:05:09.198Z,28.30
2018-08-10T15:07:36.843Z,28.30
2018-08-10T15:10:06.070Z,28.20
2018-08-10T15:12:34.127Z,28.10
2018-08-10T15:15:01.382Z,28.10
2018-08-10T15:17:29.360Z,28.00
2018-08-10T15:19:57.128Z,27.90
2018-08-10T15:22:24.765Z,27.80
2018-08-10T15:24:52.524Z,27.80
2018-08-10T15:27:20.596Z,27.90
2018-08-10T15:29:48.256Z,28.00
2018-08-10T15:32:16.329Z,28.10
2018-08-10T15:34:44.145Z,28.20
2018-08-10T15:37:12.303Z,28.20
2018-08-10T15:39:40.027Z,28.20
2018-08-10T15:42:08.061Z,28.20
2018-08-10T15:44:35.804Z,28.30
2018-08-10T15:47:03.801Z,28.30
2018-08-10T15:49:31.905Z,28.30
2018-08-10T15:51:59.635Z,28.20
2018-08-10T15:54:27.315Z,28.00
2018-08-10T15:56:54.871Z,28.00
2018-08-10T15:59:22.757Z,28.00
2018-08-10T16:01:50.707Z,28.00
2018-08-10T16:04:18.402Z,27.90
2018-08-10T16:06:45.982Z,27.80
2018-08-10T16:09:13.624Z,27.80
2018-08-10T16:11:41.276Z,27.70
2018-08-10T16:14:10.182Z,27.60
2018-08-10T16:16:37.738Z,27.50
2018-08-10T16:19:05.521Z,27.30
2018-08-10T16:21:33.464Z,27.20
2018-08-10T16:24:01.233Z,27.10
2018-08-10T16:26:28.942Z,27.00
2018-08-10T16:28:56.564Z,27.10
2018-08-10T16:31:24.312Z,27.10
2018-08-10T16:33:52.165Z,27.10
2018-08-10T16:36:19.840Z,27.20
2018-08-10T16:38:47.620Z,27.20
2018-08-10T16:41:15.583Z,27.10
2018-08-10T16:43:43.340Z,27.00
2018-08-10T16:46:11.015Z,27.00
2018-08-10T16:48:38.769Z,27.00
2018-08-10T16:51:06.527Z,27.00
2018-08-10T16:53:34.256Z,27.00
2018-08-10T16:56:02.075Z,27.00
2018-08-10T16:58:29.727Z,26.80
2018-08-10T17:00:57.492Z,26.70
2018-08-10T17:03:25.512Z,26.60
2018-08-10T17:05:53.146Z,26.70
2018-08-10T17:08:21.160Z,26.60
2018-08-10T17:10:48.847Z,26.50
2018-08-10T17:13:16.432Z,26.40
2018-08-10T17:15:44.074Z,26.30
2018-08-10T17:18:11.727Z,26.30
2018-08-10T17:20:39.331Z,26.20
2018-08-10T17:23:07.156Z,26.20
2018-08-10T17:25:36.048Z,26.10
2018-08-10T17:28:03.668Z,26.00
2018-08-10T17:30:31.440Z,26.00
2018-08-10T17:32:59.174Z,25.90
2018-08-10T17:35:26.841Z,25.80
2018-08-10T17:37:56.043Z,25.70
2018-08-10T17:40:23.904Z,25.60
2018-08-10T17:42:51.501Z,25.50
2018-08-10T17:45:19.182Z,25.40
2018-08-10T17:47:48.700Z,25.20
2018-08-10T17:50:21.406Z,25.10
2018-08-10T17:52:50.553Z,24.90
2018-08-10T17:55:18.816Z,24.80
2018-08-10T17:57:46.743Z,24.70
2018-08-10T18:00:16.507Z,24.50
2018-08-10T18:02:44.822Z,24.40
2018-08-10T18:05:13.731Z,24.30
2018-08-10T18:07:41.979Z,24.10
2018-08-10T18:10:10.693Z,24.10
2018-08-10T18:12:39.448Z,23.90
2018-08-10T18:15:12.694Z,23.70
2018-08-10T18:17:42.469Z,23.60
2018-08-10T18:20:15.395Z,23.50
2018-08-10T18:22:44.441Z,23.30
2018-08-10T18:25:13.227Z,23.20
2018-08-10T18:27:41.605Z,23.10
2018-08-10T18:30:14.918Z,23.00
2018-08-10T18:32:42.565Z,23.00
2018-08-10T18:37:47.761Z,22.80
2018-08-10T18:40:16.208Z,22.70
2018-08-10T18:42:45.121Z,22.60
2018-08-10T18:45:14.262Z,22.50
2018-08-10T18:47:42.025Z,22.40
2018-08-10T18:50:11.580Z,22.30
2018-08-10T18:52:39.275Z,22.20
2018-08-10T18:55:08.570Z,22.10
2018-08-10T18:57:36.121Z,22.10
2018-08-10T19:00:05.606Z,22.00
2018-08-10T19:02:33.358Z,21.90
2018-08-10T19:05:01.032Z,21.80
2018-08-10T19:07:28.630Z,21.60
2018-08-10T19:09:56.230Z,21.50
2018-08-10T19:12:24.009Z,21.30
2018-08-10T19:14:51.660Z,21.10
2018-08-10T19:17:19.467Z,21.00
2018-08-10T19:19:47.428Z,20.80
2018-08-10T19:22:15.114Z,20.70
2018-08-10T19:24:42.680Z,20.60
2018-08-10T19:27:10.680Z,20.50
2018-08-10T19:29:38.576Z,20.40
2018-08-10T19:32:06.347Z,20.40
2018-08-10T19:34:33.936Z,20.30
2018-08-10T19:37:01.590Z,20.20
2018-08-10T19:39:29.287Z,20.10
2018-08-10T19:41:56.945Z,20.00
2018-08-10T19:44:24.495Z,19.90
2018-08-10T19:46:54.143Z,19.80
2018-08-10T19:49:21.692Z,19.80
2018-08-10T19:51:49.416Z,19.70
2018-08-10T19:54:17.391Z,19.70
2018-08-10T19:56:45.014Z,19.70
2018-08-10T19:59:12.732Z,19.60
2018-08-10T20:01:40.312Z,19.60
2018-08-10T20:04:08.006Z,19.50
2018-08-10T20:06:35.637Z,19.50
2018-08-10T20:09:05.004Z,19.40
2018-08-10T20:11:32.645Z,19.40
2018-08-10T20:14:00.328Z,19.40
2018-08-10T20:16:27.925Z,19.30
2018-08-10T20:18:55.530Z,19.20
2018-08-10T20:21:23.188Z,19.20
2018-08-10T20:23:50.790Z,19.10
2018-08-10T20:26:18.418Z,19.00
2018-08-10T20:28:46.101Z,19.00
2018-08-10T20:31:13.735Z,19.00
2018-08-10T20:33:41.329Z,18.90
2018-08-10T20:36:08.925Z,18.90
2018-08-10T20:38:36.523Z,18.70
2018-08-10T20:41:04.086Z,18.70
2018-08-10T20:43:31.700Z,18.60
2018-08-10T20:45:59.364Z,18.60
2018-08-10T20:48:27.091Z,18.50
2018-08-10T20:50:54.721Z,18.50
2018-08-10T20:53:22.348Z,18.40
2018-08-10T20:55:49.967Z,18.40
2018-08-10T20:58:17.650Z,18.40
2018-08-10T21:00:45.241Z,18.30
2018-08-10T21:03:12.867Z,18.20
2018-08-10T21:05:40.502Z,18.20
2018-08-10T21:08:08.122Z,18.10
2018-08-10T21:10:35.719Z,18.10
2018-08-10T21:13:03.343Z,18.00
2018-08-10T21:15:31.002Z,18.00
2018-08-10T21:17:58.772Z,17.90
2018-08-10T21:20:26.451Z,17.90
2018-08-10T21:22:54.032Z,17.90
2018-08-10T21:25:21.613Z,17.90
2018-08-10T21:27:49.258Z,17.80
2018-08-10T21:30:18.124Z,17.80
2018-08-10T21:32:46.007Z,17.70
2018-08-10T21:35:13.656Z,17.70
2018-08-10T21:37:41.464Z,17.70
2018-08-10T21:40:09.828Z,17.70
2018-08-10T21:42:37.790Z,17.60
2018-08-10T21:45:06.151Z,17.60
2018-08-10T21:47:33.828Z,17.50
2018-08-10T21:50:01.653Z,17.50
2018-08-10T21:52:29.259Z,17.50
2018-08-10T21:54:57.036Z,17.50
2018-08-10T21:57:24.780Z,17.40
2018-08-10T21:59:52.549Z,17.40
2018-08-10T22:02:21.385Z,17.40
2018-08-10T22:04:48.955Z,17.40
2018-08-10T22:07:16.537Z,17.30
2018-08-10T22:09:44.223Z,17.30
2018-08-10T22:12:16.552Z,17.30
2018-08-10T22:14:49.792Z,17.30
2018-08-10T22:17:23.392Z,17.30
2018-08-10T22:19:51.751Z,17.30
2018-08-10T22:22:19.702Z,17.30
2018-08-10T22:24:47.350Z,17.20
2018-08-10T22:27:15.016Z,17.20
2018-08-10T22:29:42.810Z,17.40
2018-08-10T22:32:10.436Z,17.70
2018-08-10T22:34:38.112Z,17.70
2018-08-10T22:37:05.699Z,17.70
2018-08-10T22:39:33.368Z,17.70
2018-08-10T22:42:01.156Z,17.70
2018-08-10T22:44:28.728Z,17.70
2018-08-10T22:46:56.351Z,17.60
2018-08-10T22:49:24.087Z,17.70
2018-08-10T22:51:51.772Z,18.30
2018-08-10T22:54:19.402Z,18.80
2018-08-10T22:56:47.075Z,19.10
2018-08-10T22:59:14.580Z,19.30
2018-08-10T23:01:42.213Z,19.50
2018-08-10T23:04:10.195Z,19.80
2018-08-10T23:06:38.005Z,20.00
2018-08-10T23:09:07.863Z,20.20
2018-08-10T23:11:35.737Z,20.20
2018-08-10T23:14:03.445Z,19.90
2018-08-10T23:16:31.265Z,20.10
2018-08-10T23:18:58.884Z,20.20
2018-08-10T23:21:26.575Z,20.40
2018-08-10T23:23:54.435Z,20.60
2018-08-10T23:26:22.018Z,20.70
2018-08-10T23:28:49.722Z,20.90
2018-08-10T23:31:17.294Z,21.10
2018-08-10T23:33:45.001Z,21.30
2018-08-10T23:36:12.616Z,21.40
2018-08-10T23:38:40.157Z,21.40
2018-08-10T23:41:07.917Z,21.40
2018-08-10T23:43:35.746Z,21.40
2018-08-10T23:46:03.503Z,21.40
2018-08-10T23:48:31.556Z,21.30
2018-08-10T23:50:59.142Z,21.10
2018-08-10T23:53:26.700Z,20.90
2018-08-10T23:55:54.449Z,20.70
2018-08-10T23:58:22.413Z,20.50
